createdAt,value
2022-10-13T00:00:56.158Z,101520.12
2022-10-13T00:04:03.303Z,101514.53
2022-10-13T00:07:09.895Z,101518.72
2022-10-13T00:10:15.960Z,101517.11
2022-10-13T00:13:22.762Z,101516.35
2022-10-13T00:16:29.606Z,101515.47
2022-10-13T00:19:38.595Z,101511.16
2022-10-13T00:22:45.634Z,101517.18
2022-10-13T00:26:02.879Z,101511.62
2022-10-13T00:29:09.674Z,101518.00
2022-10-13T00:32:15.529Z,101514.16
2022-10-13T00:35:22.701Z,101511.09
2022-10-13T00:38:27.572Z,101511.20
2022-10-13T00:41:34.324Z,101509.48
2022-10-13T00:45:11.353Z,101519.57
2022-10-13T00:48:19.322Z,101513.50
2022-10-13T00:51:25.836Z,101522.73
2022-10-13T00:54:34.983Z,101519.74
2022-10-13T00:57:41.213Z,101520.96
2022-10-13T01:00:46.839Z,101519.20
2022-10-13T01:03:54.566Z,101516.49
2022-10-13T01:07:00.598Z,101523.50
2022-10-13T01:10:08.559Z,101520.14
2022-10-13T01:13:45.614Z,101511.38
2022-10-13T01:17:17.531Z,101517.41
2022-10-13T01:21:06.683Z,101516.27
2022-10-13T01:24:35.852Z,101512.42
2022-10-13T01:27:54.899Z,101512.54
2022-10-13T01:31:24.536Z,101514.59
2022-10-13T01:35:00.122Z,101514.53
2022-10-13T01:38:14.875Z,101515.64
2022-10-13T01:41:39.027Z,101516.81
2022-10-13T01:44:51.015Z,101522.09
2022-10-13T01:47:56.106Z,101525.14
2022-10-13T01:51:03.014Z,101524.26
2022-10-13T01:54:10.752Z,101530.89
2022-10-13T01:57:17.207Z,101530.49
2022-10-13T02:00:27.416Z,101527.05
2022-10-13T02:03:51.970Z,101529.76
2022-10-13T02:07:25.294Z,101534.19
2022-10-13T02:10:51.355Z,101536.09
2022-10-13T02:14:25.720Z,101524.55
2022-10-13T02:17:32.767Z,101532.80
2022-10-13T02:20:39.652Z,101536.94
2022-10-13T02:23:46.202Z,101538.52
2022-10-13T02:26:51.945Z,101540.38
2022-10-13T02:30:06.806Z,101541.34
2022-10-13T02:33:14.207Z,101545.03
2022-10-13T02:36:20.809Z,101539.66
2022-10-13T02:39:29.010Z,101542.32
2022-10-13T02:42:35.354Z,101543.49
2022-10-13T02:45:40.687Z,101536.09
2022-10-13T02:48:47.015Z,101535.80
2022-10-13T02:51:55.828Z,101544.14
2022-10-13T02:55:01.604Z,101549.20
2022-10-13T02:58:07.759Z,101548.05
2022-10-13T03:01:25.107Z,101550.47
2022-10-13T03:04:31.995Z,101547.98
2022-10-13T03:07:38.075Z,101541.42
2022-10-13T03:10:44.045Z,101547.20
2022-10-13T03:13:51.246Z,101551.59
2022-10-13T03:16:56.399Z,101551.70
2022-10-13T03:20:02.272Z,101553.27
2022-10-13T03:23:09.345Z,101545.62
2022-10-13T03:26:15.204Z,101549.78
2022-10-13T03:29:21.767Z,101549.20
2022-10-13T03:32:27.696Z,101554.98
2022-10-13T03:35:35.089Z,101550.92
2022-10-13T03:38:43.847Z,101552.90
2022-10-13T03:41:49.992Z,101552.50
2022-10-13T03:44:56.703Z,101552.02
2022-10-13T03:48:07.058Z,101550.66
2022-10-13T03:51:13.406Z,101550.66
2022-10-13T03:54:21.495Z,101548.06
2022-10-13T03:57:28.463Z,101549.42
2022-10-13T04:00:35.722Z,101548.64
2022-10-13T04:03:43.450Z,101556.98
2022-10-13T04:06:49.459Z,101552.55
2022-10-13T04:09:54.745Z,101559.11
2022-10-13T04:13:03.061Z,101562.75
2022-10-13T04:16:10.449Z,101564.29
2022-10-13T04:19:20.341Z,101567.16
2022-10-13T04:22:26.223Z,101563.46
2022-10-13T04:25:34.358Z,101568.08
2022-10-13T04:28:43.462Z,101578.23
2022-10-13T04:31:51.953Z,101576.77
2022-10-13T04:34:58.669Z,101578.02
2022-10-13T04:38:04.817Z,101577.80
2022-10-13T04:41:11.126Z,101578.31
2022-10-13T04:44:16.613Z,101589.73
2022-10-13T04:47:21.857Z,101586.91
2022-10-13T04:50:27.233Z,101577.22
2022-10-13T04:53:36.148Z,101582.20
2022-10-13T04:56:44.805Z,101582.87
2022-10-13T04:59:52.455Z,101578.47
2022-10-13T05:02:59.762Z,101586.28
2022-10-13T05:06:05.969Z,101587.20
2022-10-13T05:09:37.654Z,101595.78
2022-10-13T05:12:44.583Z,101598.70
2022-10-13T05:15:53.580Z,101602.52
2022-10-13T05:18:59.497Z,101610.76
2022-10-13T05:22:06.049Z,101603.71
2022-10-13T05:25:12.724Z,101606.88
2022-10-13T05:28:20.127Z,101601.17
2022-10-13T05:31:35.569Z,101606.41
2022-10-13T05:34:40.722Z,101605.12
2022-10-13T05:37:48.886Z,101606.67
2022-10-13T05:40:56.926Z,101608.51
2022-10-13T05:44:03.634Z,101607.21
2022-10-13T05:47:12.416Z,101611.72
2022-10-13T05:50:19.523Z,101622.67
2022-10-13T05:53:25.111Z,101625.08
2022-10-13T05:56:34.201Z,101629.21
2022-10-13T05:59:39.463Z,101627.53
2022-10-13T06:02:49.371Z,101625.70
2022-10-13T06:05:56.123Z,101624.89
2022-10-13T06:09:02.784Z,101618.24
2022-10-13T06:12:11.133Z,101617.27
2022-10-13T06:15:16.887Z,101615.09
2022-10-13T06:18:24.539Z,101619.54
2022-10-13T06:21:30.280Z,101620.55
2022-10-13T06:24:36.782Z,101623.28
2022-10-13T06:27:45.947Z,101627.59
2022-10-13T06:30:57.842Z,101625.23
2022-10-13T06:34:04.762Z,101625.48
2022-10-13T06:37:14.351Z,101627.19
2022-10-13T06:40:21.590Z,101633.00
2022-10-13T06:43:35.713Z,101633.34
2022-10-13T06:46:36.781Z,101634.19
2022-10-13T06:49:42.987Z,101635.38
2022-10-13T06:52:51.455Z,101634.46
2022-10-13T06:56:02.506Z,101631.23
2022-10-13T06:59:08.413Z,101626.73
2022-10-13T07:02:16.558Z,101625.80
2022-10-13T07:05:25.499Z,101618.56
2022-10-13T07:08:31.494Z,101613.52
2022-10-13T07:11:39.175Z,101619.16
2022-10-13T07:14:44.110Z,101617.05
2022-10-13T07:17:51.233Z,101614.83
2022-10-13T07:20:59.129Z,101615.34
2022-10-13T07:24:05.458Z,101606.27
2022-10-13T07:27:12.382Z,101615.45
2022-10-13T07:30:17.706Z,101621.02
2022-10-13T07:33:24.614Z,101621.00
2022-10-13T07:36:31.339Z,101616.97
2022-10-13T07:39:37.703Z,101615.25
2022-10-13T07:42:43.793Z,101615.81
2022-10-13T07:45:50.585Z,101616.34
2022-10-13T07:48:56.358Z,101614.44
2022-10-13T07:52:02.454Z,101612.58
2022-10-13T07:55:10.102Z,101610.27
2022-10-13T07:58:18.508Z,101610.41
2022-10-13T08:01:23.596Z,101615.63
2022-10-13T08:04:29.347Z,101606.33
2022-10-13T08:07:38.870Z,101611.21
2022-10-13T08:10:47.073Z,101605.96
2022-10-13T08:13:55.656Z,101609.82
2022-10-13T08:17:02.050Z,101607.88
2022-10-13T08:20:06.972Z,101607.63
2022-10-13T08:23:29.216Z,101607.25
2022-10-13T08:26:42.101Z,101605.77
2022-10-13T08:29:49.640Z,101607.41
2022-10-13T08:32:49.475Z,101601.84
2022-10-13T08:35:43.877Z,101604.16
2022-10-13T08:38:57.324Z,101598.45
2022-10-13T08:42:17.159Z,101609.83
2022-10-13T08:45:42.716Z,101610.77
2022-10-13T08:48:48.552Z,101608.47
2022-10-13T08:51:55.706Z,101599.63
2022-10-13T08:55:03.594Z,101607.20
2022-10-13T08:58:11.770Z,101597.82
2022-10-13T09:01:33.707Z,101599.94
2022-10-13T09:04:53.581Z,101598.28
2022-10-13T09:08:01.557Z,101602.30
2022-10-13T09:11:08.116Z,101611.94
2022-10-13T09:14:22.041Z,101601.02
2022-10-13T09:17:43.304Z,101599.68
2022-10-13T09:20:49.299Z,101594.09
2022-10-13T09:23:57.735Z,101591.77
2022-10-13T09:27:05.297Z,101587.55
2022-10-13T09:30:11.611Z,101595.65
2022-10-13T09:33:30.329Z,101594.17
2022-10-13T09:36:41.364Z,101592.87
2022-10-13T09:39:49.257Z,101591.53
2022-10-13T09:43:05.998Z,101583.50
2022-10-13T09:46:12.728Z,101582.15
2022-10-13T09:49:40.681Z,101580.00
2022-10-13T09:52:47.764Z,101578.48
2022-10-13T09:55:57.015Z,101583.86
2022-10-13T09:59:11.114Z,101580.95
2022-10-13T10:02:20.307Z,101580.62
2022-10-13T10:05:45.154Z,101580.41
2022-10-13T10:09:27.465Z,101572.72
2022-10-13T10:12:36.178Z,101575.11
2022-10-13T10:16:03.408Z,101570.03
2022-10-13T10:19:38.286Z,101568.38
2022-10-13T10:22:59.744Z,101572.50
2022-10-13T10:26:19.387Z,101574.59
2022-10-13T10:29:35.503Z,101566.04
2022-10-13T10:32:51.513Z,101562.82
2022-10-13T10:36:08.865Z,101564.26
2022-10-13T10:39:39.715Z,101557.42
2022-10-13T10:43:13.217Z,101550.04
2022-10-13T10:46:20.012Z,101549.72
2022-10-13T10:49:47.094Z,101549.41
2022-10-13T10:53:12.742Z,101547.02
2022-10-13T10:56:23.271Z,101545.63
2022-10-13T10:59:49.985Z,101546.14
2022-10-13T11:03:08.296Z,101534.80
2022-10-13T11:06:19.640Z,101540.82
2022-10-13T11:09:25.079Z,101534.28
2022-10-13T11:12:39.317Z,101529.95
2022-10-13T11:15:57.869Z,101532.19
2022-10-13T11:19:14.599Z,101536.86
2022-10-13T11:22:27.137Z,101527.19
2022-10-13T11:25:54.559Z,101525.95
2022-10-13T11:29:01.076Z,101537.64
2022-10-13T11:32:09.345Z,101540.78
2022-10-13T11:35:32.365Z,101532.19
2022-10-13T11:38:44.236Z,101534.56
2022-10-13T11:42:07.891Z,101533.34
2022-10-13T11:45:40.130Z,101543.34
2022-10-13T11:49:14.926Z,101546.59
2022-10-13T11:52:38.573Z,101539.31
2022-10-13T11:56:01.949Z,101533.47
2022-10-13T11:59:08.109Z,101534.20
2022-10-13T12:02:30.617Z,101544.39
2022-10-13T12:05:39.567Z,101525.30
2022-10-13T12:08:48.771Z,101520.13
2022-10-13T12:11:55.672Z,101530.80
2022-10-13T12:15:06.927Z,101526.92
2022-10-13T12:18:12.440Z,101526.18
2022-10-13T12:21:30.671Z,101519.08
2022-10-13T12:24:40.599Z,101522.67
2022-10-13T12:27:49.789Z,101527.28
2022-10-13T12:30:56.859Z,101522.13
2022-10-13T12:34:08.041Z,101515.41
2022-10-13T12:37:30.473Z,101512.75
2022-10-13T12:40:35.881Z,101510.08
2022-10-13T12:43:43.753Z,101519.84
2022-10-13T12:47:12.075Z,101511.41
2022-10-13T12:50:42.415Z,101516.84
2022-10-13T12:53:49.410Z,101516.89
2022-10-13T12:56:57.858Z,101512.66
2022-10-13T13:00:06.869Z,101510.17
2022-10-13T13:03:16.917Z,101511.78
2022-10-13T13:06:30.552Z,101504.41
2022-10-13T13:09:38.433Z,101502.66
2022-10-13T13:12:47.008Z,101505.06
2022-10-13T13:15:54.554Z,101508.83
2022-10-13T13:19:04.148Z,101506.95
2022-10-13T13:22:12.289Z,101506.08
2022-10-13T13:25:18.576Z,101502.12
2022-10-13T13:28:28.482Z,101506.66
2022-10-13T13:31:36.216Z,101515.66
2022-10-13T13:34:43.926Z,101509.02
2022-10-13T13:38:04.829Z,101510.12
2022-10-13T13:41:12.104Z,101516.37
2022-10-13T13:44:18.362Z,101516.72
2022-10-13T13:47:32.993Z,101515.64
2022-10-13T13:50:41.800Z,101512.53
2022-10-13T13:53:47.857Z,101520.44
2022-10-13T13:56:58.598Z,101518.20
2022-10-13T14:00:06.905Z,101519.91
2022-10-13T14:03:19.138Z,101522.98
2022-10-13T14:06:23.982Z,101521.77
2022-10-13T14:09:31.242Z,101524.49
2022-10-13T14:12:38.545Z,101522.09
2022-10-13T14:15:44.697Z,101521.72
2022-10-13T14:18:49.800Z,101523.60
2022-10-13T14:21:58.071Z,101518.60
2022-10-13T14:25:04.429Z,101526.32
2022-10-13T14:28:14.504Z,101518.88
2022-10-13T14:31:20.853Z,101525.58
2022-10-13T14:34:27.703Z,101519.88
2022-10-13T14:37:35.562Z,101520.05
2022-10-13T14:40:42.248Z,101523.96
2022-10-13T14:43:50.282Z,101517.05
2022-10-13T14:46:57.563Z,101523.12
2022-10-13T14:50:02.723Z,101525.16
2022-10-13T14:53:08.638Z,101521.48
2022-10-13T14:56:14.155Z,101521.59
2022-10-13T14:59:25.686Z,101525.98
2022-10-13T15:02:33.380Z,101528.33
2022-10-13T15:05:39.559Z,101522.56
2022-10-13T15:08:44.776Z,101527.09
2022-10-13T15:11:53.569Z,101530.08
2022-10-13T15:15:01.882Z,101528.95
2022-10-13T15:18:09.577Z,101524.03
2022-10-13T15:21:15.296Z,101527.39
2022-10-13T15:24:26.250Z,101527.80
2022-10-13T15:27:36.887Z,101535.50
2022-10-13T15:30:41.888Z,101535.53
2022-10-13T15:33:48.767Z,101525.61
2022-10-13T15:36:55.983Z,101527.26
2022-10-13T15:40:03.886Z,101523.84
2022-10-13T15:43:10.293Z,101524.77
2022-10-13T15:46:18.209Z,101524.09
2022-10-13T15:49:23.884Z,101526.52
2022-10-13T15:52:34.772Z,101524.91
2022-10-13T15:55:39.127Z,101527.75
2022-10-13T15:58:44.732Z,101524.98
2022-10-13T16:01:51.206Z,101529.89
2022-10-13T16:04:58.049Z,101533.38
2022-10-13T16:08:05.760Z,101538.03
2022-10-13T16:11:11.905Z,101534.77
2022-10-13T16:14:19.561Z,101538.75
2022-10-13T16:17:26.109Z,101546.06
2022-10-13T16:20:33.539Z,101547.27
2022-10-13T16:23:38.418Z,101548.63
2022-10-13T16:26:44.989Z,101549.23
2022-10-13T16:29:50.011Z,101545.87
2022-10-13T16:32:55.217Z,101550.36
2022-10-13T16:36:00.837Z,101553.58
2022-10-13T16:39:08.899Z,101554.91
2022-10-13T16:42:15.148Z,101550.76
2022-10-13T16:45:35.448Z,101551.69
2022-10-13T16:48:28.716Z,101547.54
2022-10-13T16:51:37.525Z,101552.31
2022-10-13T16:54:45.095Z,101547.53
2022-10-13T16:57:51.580Z,101549.19
2022-10-13T17:00:57.013Z,101546.78
2022-10-13T17:04:03.087Z,101550.41
2022-10-13T17:07:10.360Z,101556.23
2022-10-13T17:10:16.054Z,101550.10
2022-10-13T17:13:23.503Z,101554.11
2022-10-13T17:16:30.272Z,101559.13
2022-10-13T17:19:38.602Z,101560.48
2022-10-13T17:22:45.255Z,101567.56
2022-10-13T17:25:51.703Z,101569.31
2022-10-13T17:28:59.644Z,101565.13
2022-10-13T17:32:08.535Z,101567.24
2022-10-13T17:35:14.371Z,101568.38
2022-10-13T17:38:20.871Z,101565.65
2022-10-13T17:41:26.368Z,101563.19
2022-10-13T17:44:32.708Z,101561.95
2022-10-13T17:47:39.473Z,101559.00
2022-10-13T17:50:47.213Z,101564.05
2022-10-13T17:53:54.832Z,101567.04
2022-10-13T17:57:02.145Z,101562.34
2022-10-13T18:00:08.566Z,101569.15
2022-10-13T18:03:16.867Z,101564.19
2022-10-13T18:06:23.679Z,101573.11
2022-10-13T18:09:35.992Z,101570.74
2022-10-13T18:12:42.661Z,101575.19
2022-10-13T18:15:54.022Z,101576.68
2022-10-13T18:19:01.454Z,101581.52
2022-10-13T18:22:09.314Z,101582.23
2022-10-13T18:25:16.550Z,101585.56
2022-10-13T18:28:23.395Z,101588.17
2022-10-13T18:31:35.836Z,101585.93
2022-10-13T18:34:41.193Z,101587.52
2022-10-13T18:37:48.326Z,101585.28
2022-10-13T18:40:55.001Z,101584.53
2022-10-13T18:44:01.957Z,101581.80
2022-10-13T18:47:08.480Z,101582.38
2022-10-13T18:50:16.007Z,101576.19
2022-10-13T18:53:22.769Z,101576.80
2022-10-13T18:56:36.674Z,101577.02
2022-10-13T18:59:45.490Z,101588.54
2022-10-13T19:02:53.481Z,101585.06
2022-10-13T19:06:00.449Z,101580.22
2022-10-13T19:09:14.409Z,101585.02
2022-10-13T19:12:20.232Z,101584.79
2022-10-13T19:15:28.841Z,101581.94
2022-10-13T19:18:37.067Z,101580.30
2022-10-13T19:21:43.835Z,101583.12
2022-10-13T19:24:49.262Z,101585.23
2022-10-13T19:27:59.781Z,101585.61
2022-10-13T19:31:06.353Z,101583.27
2022-10-13T19:34:14.134Z,101572.72
2022-10-13T19:37:24.354Z,101582.13
2022-10-13T19:40:31.781Z,101584.38
2022-10-13T19:43:37.767Z,101586.22
2022-10-13T19:46:44.178Z,101587.72
2022-10-13T19:49:54.880Z,101590.67
2022-10-13T19:53:03.154Z,101589.30
2022-10-13T19:56:09.806Z,101576.54
2022-10-13T19:59:17.358Z,101586.97
2022-10-13T20:02:27.659Z,101601.09
2022-10-13T20:05:33.538Z,101605.67
2022-10-13T20:08:39.733Z,101601.98
2022-10-13T20:11:45.393Z,101612.90
2022-10-13T20:14:50.909Z,101597.69
2022-10-13T20:17:57.068Z,101600.41
2022-10-13T20:21:04.574Z,101608.95
2022-10-13T20:24:11.123Z,101606.61
2022-10-13T20:27:16.205Z,101611.41
2022-10-13T20:30:22.333Z,101600.89
2022-10-13T20:33:28.800Z,101609.30
2022-10-13T20:36:38.798Z,101609.52
2022-10-13T20:39:42.709Z,101600.61
2022-10-13T20:42:49.421Z,101600.88
2022-10-13T20:45:57.219Z,101598.85
2022-10-13T20:49:13.458Z,101601.23
2022-10-13T20:52:14.226Z,101597.13
2022-10-13T20:55:22.422Z,101595.77
2022-10-13T20:58:27.870Z,101597.48
2022-10-13T21:01:34.814Z,101590.67
2022-10-13T21:04:43.786Z,101588.33
2022-10-13T21:07:50.690Z,101586.44
2022-10-13T21:10:56.598Z,101589.07
2022-10-13T21:14:03.855Z,101589.64
2022-10-13T21:17:11.473Z,101587.39
2022-10-13T21:20:17.501Z,101589.98
2022-10-13T21:23:24.277Z,101585.27
2022-10-13T21:26:31.140Z,101590.73
2022-10-13T21:29:39.271Z,101593.95
2022-10-13T21:32:45.771Z,101588.76
2022-10-13T21:35:52.200Z,101588.89
2022-10-13T21:38:58.285Z,101591.62
2022-10-13T21:42:04.084Z,101587.17
2022-10-13T21:45:09.650Z,101582.69
2022-10-13T21:48:16.777Z,101584.05
2022-10-13T21:51:42.304Z,101590.88
2022-10-13T21:54:48.161Z,101583.43
2022-10-13T21:57:53.625Z,101582.42
2022-10-13T22:01:01.558Z,101581.06
2022-10-13T22:04:10.711Z,101576.13
2022-10-13T22:07:18.950Z,101583.78
2022-10-13T22:10:25.421Z,101581.45
2022-10-13T22:13:31.347Z,101590.73
2022-10-13T22:16:41.088Z,101593.95
2022-10-13T22:19:47.901Z,101598.91
2022-10-13T22:22:53.463Z,101594.20
2022-10-13T22:26:00.610Z,101598.51
2022-10-13T22:29:09.713Z,101595.02
2022-10-13T22:32:17.017Z,101589.43
2022-10-13T22:35:25.174Z,101593.03
2022-10-13T22:38:30.536Z,101591.67
2022-10-13T22:41:37.320Z,101594.02
2022-10-13T22:44:43.286Z,101592.78
2022-10-13T22:47:50.093Z,101587.45
2022-10-13T22:50:57.157Z,101580.55
2022-10-13T22:54:05.182Z,101593.95
2022-10-13T22:57:11.974Z,101593.59
2022-10-13T23:00:20.415Z,101600.41
2022-10-13T23:03:30.956Z,101599.67
2022-10-13T23:06:42.293Z,101602.89
2022-10-13T23:09:47.475Z,101594.08
2022-10-13T23:12:53.025Z,101590.73
2022-10-13T23:15:59.041Z,101593.59
2022-10-13T23:19:06.571Z,101593.95
2022-10-13T23:22:13.564Z,101595.56
2022-10-13T23:25:19.516Z,101599.39
2022-10-13T23:28:24.715Z,101603.34
2022-10-13T23:31:32.954Z,101605.20
2022-10-13T23:34:39.856Z,101609.02
2022-10-13T23:37:45.577Z,101599.12
2022-10-13T23:40:51.334Z,101603.09
2022-10-13T23:43:57.272Z,101599.05
2022-10-13T23:47:03.510Z,101599.67
2022-10-13T23:50:10.659Z,101591.73
2022-10-13T23:53:17.046Z,101584.64
2022-10-13T23:56:22.577Z,101583.86
2022-10-13T23:59:29.153Z,101575.05
